Accueil
METAR-TAF:

METAR-TAF

Aéroports :

Grande Canarie, Espagne

Aéroport de Gran Canaria

latitude: 27-56N, longitude: 015-23W, altitude: 23 m

Observation

Le bulletin a été fait il y a 13 minutes, à 22:30 UTC
Vent 19 kt de nord
Température 23°C
Humidité 78%
Pression 1019 hPa
Visibilité 10 km ou plus
pas de nuages en-dessous de 1500 mètres et pas de cumulonimbus.

METAR: GCLP 272230Z 01019KT CAVOK 23/19 Q1019 NOSIG

Heure: 23:43 (22:43 UTC)

Prévision

Le bulletin a été fait il y a 2 heures et 43 minutes, à 20:00 UTC
Prévision valable du 27 à 21 UTC au 28 à 21 UTC
Vent 22 kt de nord
Visibilité 10 km ou plus
pas de nuages en-dessous de 1500 mètres et pas de cumulonimbus.
Probabilité 30% :
Temporairement
du 28 à 10 UTC au 28 à 19 UTC
Vent 23 kt de nord/nord-est avec des rafales jusqu'à 33 kt

TAF: GCLP 272000Z 2721/2821 01022KT CAVOK TX28/2814Z TN22/2805Z PROB30 TEMPO 2810/2819 02023G33KT

Observations et prévisions météorologiques de plus de 4000 aéroports (messages METAR et TAF).

Les stations disponibles sont représentées par des disques jaunes et rouges sur la carte.

Passer la souris dessus pour voir le nom de la station.

Cliquer dessus pour voir les observations et prévisions météorologiques.

Pour changer de carte: cliquez sur les boutons verts avec une croix noire pour zoomer, sur le bouton vert avec un tiret pour effectuer un zoom arrière, ou sur les flèches vertes pour les cartes adjacentes.


METAR-TAF: